sensor_id;sensor_type;location;lat;lon;timestamp;temperature;humidity
23813;DHT22;12087;45.190;5.688;2023-03-13T00:03:39;12.10;99.90
23813;DHT22;12087;45.190;5.688;2023-03-13T00:09:03;12.10;99.90
23813;DHT22;12087;45.190;5.688;2023-03-13T00:14:26;12.10;99.90
23813;DHT22;12087;45.190;5.688;2023-03-13T00:19:49;12.10;99.90
23813;DHT22;12087;45.190;5.688;2023-03-13T00:25:13;12.00;99.90
23813;DHT22;12087;45.190;5.688;2023-03-13T00:30:35;12.10;99.90
23813;DHT22;12087;45.190;5.688;2023-03-13T00:35:59;12.00;99.90
23813;DHT22;12087;45.190;5.688;2023-03-13T00:41:23;12.00;99.90
23813;DHT22;12087;45.190;5.688;2023-03-13T00:46:46;12.00;99.90
23813;DHT22;12087;45.190;5.688;2023-03-13T00:52:08;12.10;99.90
23813;DHT22;12087;45.190;5.688;2023-03-13T00:57:32;12.00;99.90
23813;DHT22;12087;45.190;5.688;2023-03-13T01:02:57;12.10;99.90
23813;DHT22;12087;45.190;5.688;2023-03-13T01:08:19;12.10;99.90
23813;DHT22;12087;45.190;5.688;2023-03-13T01:13:43;12.10;99.90
23813;DHT22;12087;45.190;5.688;2023-03-13T01:19:07;12.10;99.90
23813;DHT22;12087;45.190;5.688;2023-03-13T01:24:29;12.10;99.90
23813;DHT22;12087;45.190;5.688;2023-03-13T01:29:53;12.10;99.90
23813;DHT22;12087;45.190;5.688;2023-03-13T01:35:15;12.00;99.90
23813;DHT22;12087;45.190;5.688;2023-03-13T01:40:39;12.00;99.90
23813;DHT22;12087;45.190;5.688;2023-03-13T01:46:11;12.00;99.90
23813;DHT22;12087;45.190;5.688;2023-03-13T01:51:36;12.00;99.90
23813;DHT22;12087;45.190;5.688;2023-03-13T01:57:02;12.00;99.90
23813;DHT22;12087;45.190;5.688;2023-03-13T02:02:27;11.90;99.90
23813;DHT22;12087;45.190;5.688;2023-03-13T02:07:55;12.00;99.90
23813;DHT22;12087;45.190;5.688;2023-03-13T02:13:19;11.90;99.90
23813;DHT22;12087;45.190;5.688;2023-03-13T02:18:43;11.90;99.90
23813;DHT22;12087;45.190;5.688;2023-03-13T02:24:12;11.90;99.90
23813;DHT22;12087;45.190;5.688;2023-03-13T02:29:39;11.90;99.90
23813;DHT22;12087;45.190;5.688;2023-03-13T02:35:06;11.90;99.90
23813;DHT22;12087;45.190;5.688;2023-03-13T02:40:31;11.90;99.90
23813;DHT22;12087;45.190;5.688;2023-03-13T02:46:06;11.90;99.90
23813;DHT22;12087;45.190;5.688;2023-03-13T02:51:30;11.80;99.90
23813;DHT22;12087;45.190;5.688;2023-03-13T02:56:57;11.70;99.90
23813;DHT22;12087;45.190;5.688;2023-03-13T03:02:22;11.70;99.90
23813;DHT22;12087;45.190;5.688;2023-03-13T03:07:45;11.60;99.90
23813;DHT22;12087;45.190;5.688;2023-03-13T03:13:07;11.50;99.90
23813;DHT22;12087;45.190;5.688;2023-03-13T03:18:30;11.50;99.90
23813;DHT22;12087;45.190;5.688;2023-03-13T03:23:53;11.50;99.90
23813;DHT22;12087;45.190;5.688;2023-03-13T03:29:15;11.50;99.90
23813;DHT22;12087;45.190;5.688;2023-03-13T03:34:39;11.40;99.90
23813;DHT22;12087;45.190;5.688;2023-03-13T03:40:01;11.50;99.90
23813;DHT22;12087;45.190;5.688;2023-03-13T03:45:25;11.40;99.90
23813;DHT22;12087;45.190;5.688;2023-03-13T03:50:49;11.40;99.90
23813;DHT22;12087;45.190;5.688;2023-03-13T03:56:11;11.40;99.90
23813;DHT22;12087;45.190;5.688;2023-03-13T04:01:35;11.40;99.90
23813;DHT22;12087;45.190;5.688;2023-03-13T04:06:58;11.40;99.90
23813;DHT22;12087;45.190;5.688;2023-03-13T04:12:21;11.40;99.90
23813;DHT22;12087;45.190;5.688;2023-03-13T04:17:43;11.40;99.90
23813;DHT22;12087;45.190;5.688;2023-03-13T04:23:07;11.40;99.90
23813;DHT22;12087;45.190;5.688;2023-03-13T04:28:29;11.40;99.90
23813;DHT22;12087;45.190;5.688;2023-03-13T04:33:51;11.50;99.90
23813;DHT22;12087;45.190;5.688;2023-03-13T04:39:14;11.40;99.90
23813;DHT22;12087;45.190;5.688;2023-03-13T04:44:37;11.40;99.90
23813;DHT22;12087;45.190;5.688;2023-03-13T04:49:59;11.40;99.90
23813;DHT22;12087;45.190;5.688;2023-03-13T04:55:23;11.40;99.90
23813;DHT22;12087;45.190;5.688;2023-03-13T05:00:45;11.50;99.90
23813;DHT22;12087;45.190;5.688;2023-03-13T05:06:07;11.40;99.90
23813;DHT22;12087;45.190;5.688;2023-03-13T05:11:31;11.40;99.90
23813;DHT22;12087;45.190;5.688;2023-03-13T05:16:53;11.50;99.90
23813;DHT22;12087;45.190;5.688;2023-03-13T05:22:15;11.50;99.90
23813;DHT22;12087;45.190;5.688;2023-03-13T05:27:39;11.50;99.90
23813;DHT22;12087;45.190;5.688;2023-03-13T05:33:01;11.40;99.90
23813;DHT22;12087;45.190;5.688;2023-03-13T05:38:23;11.40;99.90
23813;DHT22;12087;45.190;5.688;2023-03-13T05:43:47;11.40;99.90
23813;DHT22;12087;45.190;5.688;2023-03-13T05:49:09;11.30;99.90
23813;DHT22;12087;45.190;5.688;2023-03-13T05:54:31;11.30;99.90
23813;DHT22;12087;45.190;5.688;2023-03-13T05:59:55;11.30;99.90
23813;DHT22;12087;45.190;5.688;2023-03-13T06:05:17;11.20;99.90
23813;DHT22;12087;45.190;5.688;2023-03-13T06:10:39;11.20;99.90
23813;DHT22;12087;45.190;5.688;2023-03-13T06:16:03;11.20;99.90
23813;DHT22;12087;45.190;5.688;2023-03-13T06:21:26;11.10;99.90
23813;DHT22;12087;45.190;5.688;2023-03-13T06:26:48;11.10;99.90
23813;DHT22;12087;45.190;5.688;2023-03-13T06:32:12;11.10;99.90
23813;DHT22;12087;45.190;5.688;2023-03-13T06:37:34;11.20;99.90
23813;DHT22;12087;45.190;5.688;2023-03-13T06:42:56;11.20;99.90
23813;DHT22;12087;45.190;5.688;2023-03-13T06:48:20;11.30;99.90
23813;DHT22;12087;45.190;5.688;2023-03-13T06:53:43;11.30;99.90
23813;DHT22;12087;45.190;5.688;2023-03-13T06:59:05;11.30;99.90
23813;DHT22;12087;45.190;5.688;2023-03-13T07:04:28;11.30;99.90
23813;DHT22;12087;45.190;5.688;2023-03-13T07:09:51;11.20;99.90
23813;DHT22;12087;45.190;5.688;2023-03-13T07:15:13;11.20;99.90
23813;DHT22;12087;45.190;5.688;2023-03-13T07:20:36;11.10;99.90
23813;DHT22;12087;45.190;5.688;2023-03-13T07:26:00;11.20;99.90
23813;DHT22;12087;45.190;5.688;2023-03-13T07:31:22;11.30;99.90
23813;DHT22;12087;45.190;5.688;2023-03-13T07:36:46;11.40;99.90
23813;DHT22;12087;45.190;5.688;2023-03-13T07:42:09;11.50;99.90
23813;DHT22;12087;45.190;5.688;2023-03-13T07:47:33;11.60;99.90
23813;DHT22;12087;45.190;5.688;2023-03-13T07:52:57;11.70;99.90
23813;DHT22;12087;45.190;5.688;2023-03-13T07:58:19;11.80;99.90
23813;DHT22;12087;45.190;5.688;2023-03-13T08:03:42;12.00;99.90
23813;DHT22;12087;45.190;5.688;2023-03-13T08:09:06;12.10;99.90
23813;DHT22;12087;45.190;5.688;2023-03-13T08:14:28;12.20;99.90
23813;DHT22;12087;45.190;5.688;2023-03-13T08:19:50;12.30;99.90
23813;DHT22;12087;45.190;5.688;2023-03-13T08:25:14;12.30;99.90
23813;DHT22;12087;45.190;5.688;2023-03-13T08:30:37;12.30;99.90
23813;DHT22;12087;45.190;5.688;2023-03-13T08:36:05;12.30;99.90
23813;DHT22;12087;45.190;5.688;2023-03-13T08:41:32;12.40;99.90
23813;DHT22;12087;45.190;5.688;2023-03-13T08:46:55;12.40;99.90
23813;DHT22;12087;45.190;5.688;2023-03-13T08:52:19;12.40;99.90
23813;DHT22;12087;45.190;5.688;2023-03-13T08:57:43;12.50;99.90
23813;DHT22;12087;45.190;5.688;2023-03-13T09:03:05;12.50;99.90
23813;DHT22;12087;45.190;5.688;2023-03-13T09:08:28;12.60;99.90
23813;DHT22;12087;45.190;5.688;2023-03-13T09:13:54;12.60;99.90
23813;DHT22;12087;45.190;5.688;2023-03-13T09:19:18;12.70;99.90
23813;DHT22;12087;45.190;5.688;2023-03-13T09:24:41;12.80;99.90
23813;DHT22;12087;45.190;5.688;2023-03-13T09:30:07;12.80;99.90
23813;DHT22;12087;45.190;5.688;2023-03-13T09:35:29;12.90;99.90
23813;DHT22;12087;45.190;5.688;2023-03-13T09:40:53;13.00;99.90
23813;DHT22;12087;45.190;5.688;2023-03-13T09:46:22;13.10;99.90
23813;DHT22;12087;45.190;5.688;2023-03-13T09:51:49;13.20;99.90
23813;DHT22;12087;45.190;5.688;2023-03-13T09:57:19;13.30;99.90
23813;DHT22;12087;45.190;5.688;2023-03-13T10:02:50;13.60;99.90
23813;DHT22;12087;45.190;5.688;2023-03-13T10:08:17;13.90;99.90
23813;DHT22;12087;45.190;5.688;2023-03-13T10:13:46;14.10;99.90
23813;DHT22;12087;45.190;5.688;2023-03-13T10:19:13;14.10;99.90
23813;DHT22;12087;45.190;5.688;2023-03-13T10:24:40;14.20;99.90
23813;DHT22;12087;45.190;5.688;2023-03-13T10:30:04;14.40;99.90
23813;DHT22;12087;45.190;5.688;2023-03-13T10:35:33;14.60;99.90
23813;DHT22;12087;45.190;5.688;2023-03-13T10:40:57;15.00;99.90
23813;DHT22;12087;45.190;5.688;2023-03-13T10:46:27;15.30;99.90
23813;DHT22;12087;45.190;5.688;2023-03-13T10:51:52;15.40;99.90
23813;DHT22;12087;45.190;5.688;2023-03-13T10:57:28;15.60;99.90
23813;DHT22;12087;45.190;5.688;2023-03-13T11:02:52;15.90;99.90
23813;DHT22;12087;45.190;5.688;2023-03-13T11:08:22;16.10;99.90
23813;DHT22;12087;45.190;5.688;2023-03-13T11:13:45;16.40;99.90
23813;DHT22;12087;45.190;5.688;2023-03-13T11:19:32;16.80;99.90
23813;DHT22;12087;45.190;5.688;2023-03-13T11:25:03;16.90;99.90
23813;DHT22;12087;45.190;5.688;2023-03-13T11:30:50;17.10;99.90
23813;DHT22;12087;45.190;5.688;2023-03-13T11:36:21;17.20;99.90
23813;DHT22;12087;45.190;5.688;2023-03-13T11:41:58;17.50;99.90
23813;DHT22;12087;45.190;5.688;2023-03-13T11:47:36;17.60;99.90
23813;DHT22;12087;45.190;5.688;2023-03-13T11:53:10;17.60;99.90
23813;DHT22;12087;45.190;5.688;2023-03-13T11:58:58;17.70;99.90
23813;DHT22;12087;45.190;5.688;2023-03-13T12:04:25;17.80;99.90
23813;DHT22;12087;45.190;5.688;2023-03-13T12:09:53;18.00;99.90
23813;DHT22;12087;45.190;5.688;2023-03-13T12:15:21;18.30;99.90
23813;DHT22;12087;45.190;5.688;2023-03-13T12:20:48;18.70;99.90
23813;DHT22;12087;45.190;5.688;2023-03-13T12:26:15;18.90;99.90
23813;DHT22;12087;45.190;5.688;2023-03-13T12:31:42;19.30;99.90
23813;DHT22;12087;45.190;5.688;2023-03-13T12:37:09;19.90;99.90
23813;DHT22;12087;45.190;5.688;2023-03-13T12:42:41;20.30;99.90
23813;DHT22;12087;45.190;5.688;2023-03-13T12:48:22;21.60;92.60
23813;DHT22;12087;45.190;5.688;2023-03-13T12:54:16;22.20;95.00
23813;DHT22;12087;45.190;5.688;2023-03-13T12:59:43;22.70;93.90
23813;DHT22;12087;45.190;5.688;2023-03-13T13:05:18;22.90;85.90
23813;DHT22;12087;45.190;5.688;2023-03-13T13:10:41;23.20;90.10
23813;DHT22;12087;45.190;5.688;2023-03-13T13:16:05;23.20;78.00
23813;DHT22;12087;45.190;5.688;2023-03-13T13:21:33;23.20;77.50
23813;DHT22;12087;45.190;5.688;2023-03-13T13:26:57;23.60;77.10
23813;DHT22;12087;45.190;5.688;2023-03-13T13:32:35;23.80;77.80
23813;DHT22;12087;45.190;5.688;2023-03-13T13:38:30;24.20;75.00
23813;DHT22;12087;45.190;5.688;2023-03-13T13:44:24;24.30;83.50
23813;DHT22;12087;45.190;5.688;2023-03-13T13:49:53;24.00;81.10
23813;DHT22;12087;45.190;5.688;2023-03-13T13:55:42;24.20;77.10
23813;DHT22;12087;45.190;5.688;2023-03-13T14:01:05;24.20;79.60
23813;DHT22;12087;45.190;5.688;2023-03-13T14:06:34;23.90;70.40
23813;DHT22;12087;45.190;5.688;2023-03-13T14:12:00;23.80;72.20
23813;DHT22;12087;45.190;5.688;2023-03-13T14:17:22;24.00;72.40
23813;DHT22;12087;45.190;5.688;2023-03-13T14:22:45;24.20;70.40
23813;DHT22;12087;45.190;5.688;2023-03-13T14:28:20;24.10;68.70
23813;DHT22;12087;45.190;5.688;2023-03-13T14:33:42;24.20;68.80
23813;DHT22;12087;45.190;5.688;2023-03-13T14:39:04;24.10;68.40
23813;DHT22;12087;45.190;5.688;2023-03-13T14:44:31;23.90;67.70
23813;DHT22;12087;45.190;5.688;2023-03-13T14:49:56;23.60;68.60
23813;DHT22;12087;45.190;5.688;2023-03-13T14:55:29;23.70;68.80
23813;DHT22;12087;45.190;5.688;2023-03-13T15:00:55;23.50;69.20
23813;DHT22;12087;45.190;5.688;2023-03-13T15:06:19;23.30;71.50
23813;DHT22;12087;45.190;5.688;2023-03-13T15:11:51;23.10;71.10
23813;DHT22;12087;45.190;5.688;2023-03-13T15:17:17;23.10;71.80
23813;DHT22;12087;45.190;5.688;2023-03-13T15:22:42;23.00;71.80
23813;DHT22;12087;45.190;5.688;2023-03-13T15:28:07;23.00;70.80
23813;DHT22;12087;45.190;5.688;2023-03-13T15:33:35;23.00;71.50
23813;DHT22;12087;45.190;5.688;2023-03-13T15:38:58;22.80;74.60
23813;DHT22;12087;45.190;5.688;2023-03-13T15:44:20;22.80;73.90
23813;DHT22;12087;45.190;5.688;2023-03-13T15:49:44;22.60;75.00
23813;DHT22;12087;45.190;5.688;2023-03-13T15:55:07;22.60;75.00
23813;DHT22;12087;45.190;5.688;2023-03-13T16:00:29;22.40;76.80
23813;DHT22;12087;45.190;5.688;2023-03-13T16:05:54;22.40;74.70
23813;DHT22;12087;45.190;5.688;2023-03-13T16:11:17;22.50;76.30
23813;DHT22;12087;45.190;5.688;2023-03-13T16:16:39;22.50;75.30
23813;DHT22;12087;45.190;5.688;2023-03-13T16:22:03;22.50;75.80
23813;DHT22;12087;45.190;5.688;2023-03-13T16:27:26;22.40;77.30
23813;DHT22;12087;45.190;5.688;2023-03-13T16:32:48;22.20;76.80
23813;DHT22;12087;45.190;5.688;2023-03-13T16:38:12;22.10;77.40
23813;DHT22;12087;45.190;5.688;2023-03-13T16:43:35;22.10;76.10
23813;DHT22;12087;45.190;5.688;2023-03-13T16:48:57;22.10;77.50
23813;DHT22;12087;45.190;5.688;2023-03-13T16:54:21;22.00;78.10
23813;DHT22;12087;45.190;5.688;2023-03-13T16:59:43;21.90;78.80
23813;DHT22;12087;45.190;5.688;2023-03-13T17:05:06;21.90;76.50
23813;DHT22;12087;45.190;5.688;2023-03-13T17:10:31;21.90;77.30
23813;DHT22;12087;45.190;5.688;2023-03-13T17:15:54;21.90;77.80
23813;DHT22;12087;45.190;5.688;2023-03-13T17:21:18;21.90;77.80
23813;DHT22;12087;45.190;5.688;2023-03-13T17:26:42;21.70;78.40
23813;DHT22;12087;45.190;5.688;2023-03-13T17:32:05;21.70;78.60
23813;DHT22;12087;45.190;5.688;2023-03-13T17:37:27;21.60;78.60
23813;DHT22;12087;45.190;5.688;2023-03-13T17:42:51;21.50;78.50
23813;DHT22;12087;45.190;5.688;2023-03-13T17:48:15;21.50;78.60
23813;DHT22;12087;45.190;5.688;2023-03-13T17:53:37;21.40;80.20
23813;DHT22;12087;45.190;5.688;2023-03-13T17:59:01;21.30;80.50
23813;DHT22;12087;45.190;5.688;2023-03-13T18:04:24;21.20;80.90
23813;DHT22;12087;45.190;5.688;2023-03-13T18:09:46;21.30;80.50
23813;DHT22;12087;45.190;5.688;2023-03-13T18:15:10;21.30;81.20
23813;DHT22;12087;45.190;5.688;2023-03-13T18:20:33;21.20;80.10
23813;DHT22;12087;45.190;5.688;2023-03-13T18:25:55;21.20;80.00
23813;DHT22;12087;45.190;5.688;2023-03-13T18:31:19;21.20;80.10
23813;DHT22;12087;45.190;5.688;2023-03-13T18:36:41;21.20;80.00
23813;DHT22;12087;45.190;5.688;2023-03-13T18:42:05;21.20;79.50
23813;DHT22;12087;45.190;5.688;2023-03-13T18:47:31;21.20;80.20
23813;DHT22;12087;45.190;5.688;2023-03-13T18:52:54;21.10;80.40
23813;DHT22;12087;45.190;5.688;2023-03-13T18:58:17;21.10;81.90
23813;DHT22;12087;45.190;5.688;2023-03-13T19:03:41;21.10;81.70
23813;DHT22;12087;45.190;5.688;2023-03-13T19:09:09;21.00;83.00
23813;DHT22;12087;45.190;5.688;2023-03-13T19:14:32;21.00;83.30
23813;DHT22;12087;45.190;5.688;2023-03-13T19:19:56;20.90;83.30
23813;DHT22;12087;45.190;5.688;2023-03-13T19:25:18;20.80;84.10
23813;DHT22;12087;45.190;5.688;2023-03-13T19:30:42;20.90;83.80
23813;DHT22;12087;45.190;5.688;2023-03-13T19:36:14;20.90;84.40
23813;DHT22;12087;45.190;5.688;2023-03-13T19:41:36;20.70;85.20
23813;DHT22;12087;45.190;5.688;2023-03-13T19:46:59;20.50;86.50
23813;DHT22;12087;45.190;5.688;2023-03-13T19:52:23;20.50;87.30
23813;DHT22;12087;45.190;5.688;2023-03-13T19:57:45;20.40;87.70
23813;DHT22;12087;45.190;5.688;2023-03-13T20:03:07;20.30;89.70
23813;DHT22;12087;45.190;5.688;2023-03-13T20:08:31;20.20;93.20
23813;DHT22;12087;45.190;5.688;2023-03-13T20:13:54;19.90;95.90
23813;DHT22;12087;45.190;5.688;2023-03-13T20:19:16;19.60;98.40
23813;DHT22;12087;45.190;5.688;2023-03-13T20:24:40;19.40;99.30
23813;DHT22;12087;45.190;5.688;2023-03-13T20:30:03;19.30;99.90
23813;DHT22;12087;45.190;5.688;2023-03-13T20:35:27;19.30;99.90
23813;DHT22;12087;45.190;5.688;2023-03-13T20:40:52;19.20;99.90
23813;DHT22;12087;45.190;5.688;2023-03-13T20:46:14;19.10;99.90
23813;DHT22;12087;45.190;5.688;2023-03-13T20:51:36;18.90;99.90
23813;DHT22;12087;45.190;5.688;2023-03-13T20:57:00;18.70;99.90
23813;DHT22;12087;45.190;5.688;2023-03-13T21:02:24;18.60;99.90
23813;DHT22;12087;45.190;5.688;2023-03-13T21:07:46;18.40;99.90
23813;DHT22;12087;45.190;5.688;2023-03-13T21:13:10;18.10;99.90
23813;DHT22;12087;45.190;5.688;2023-03-13T21:18:32;17.80;99.90
23813;DHT22;12087;45.190;5.688;2023-03-13T21:23:54;17.60;99.90
23813;DHT22;12087;45.190;5.688;2023-03-13T21:29:18;17.40;99.90
23813;DHT22;12087;45.190;5.688;2023-03-13T21:34:41;17.30;99.90
23813;DHT22;12087;45.190;5.688;2023-03-13T21:40:05;17.00;99.90
23813;DHT22;12087;45.190;5.688;2023-03-13T21:45:29;16.80;99.90
23813;DHT22;12087;45.190;5.688;2023-03-13T21:50:52;16.70;99.90
23813;DHT22;12087;45.190;5.688;2023-03-13T21:56:14;16.60;99.90
23813;DHT22;12087;45.190;5.688;2023-03-13T22:01:38;16.30;99.90
23813;DHT22;12087;45.190;5.688;2023-03-13T22:07:02;16.10;99.90
23813;DHT22;12087;45.190;5.688;2023-03-13T22:12:24;15.80;99.90
23813;DHT22;12087;45.190;5.688;2023-03-13T22:17:48;15.50;99.90
23813;DHT22;12087;45.190;5.688;2023-03-13T22:23:11;15.30;99.90
23813;DHT22;12087;45.190;5.688;2023-03-13T22:28:33;15.00;99.90
23813;DHT22;12087;45.190;5.688;2023-03-13T22:33:57;14.80;99.90
23813;DHT22;12087;45.190;5.688;2023-03-13T22:39:19;14.50;99.90
23813;DHT22;12087;45.190;5.688;2023-03-13T22:44:41;14.40;99.90
23813;DHT22;12087;45.190;5.688;2023-03-13T22:50:05;14.30;99.90
23813;DHT22;12087;45.190;5.688;2023-03-13T22:55:31;14.10;99.90
23813;DHT22;12087;45.190;5.688;2023-03-13T23:00:53;13.90;99.90
23813;DHT22;12087;45.190;5.688;2023-03-13T23:06:18;13.80;99.90
23813;DHT22;12087;45.190;5.688;2023-03-13T23:11:41;13.70;99.90
23813;DHT22;12087;45.190;5.688;2023-03-13T23:17:03;13.70;99.90
23813;DHT22;12087;45.190;5.688;2023-03-13T23:22:27;13.50;99.90
23813;DHT22;12087;45.190;5.688;2023-03-13T23:27:52;13.30;99.90
23813;DHT22;12087;45.190;5.688;2023-03-13T23:33:14;13.20;99.90
23813;DHT22;12087;45.190;5.688;2023-03-13T23:38:39;13.00;99.90
23813;DHT22;12087;45.190;5.688;2023-03-13T23:44:01;12.80;99.90
23813;DHT22;12087;45.190;5.688;2023-03-13T23:49:23;12.80;99.90
23813;DHT22;12087;45.190;5.688;2023-03-13T23:54:48;12.70;99.90
